Neosho Falls, Kansas
Current Conditions -  °F | °C
As of 2:52 AM on Wednesday 28 Jan 2015 (Local Time) from KCNU Reporting Station
Clear Clear  
Wind Chill:   Ceiling: Unl
Heat Index:   Visibility: 10mi
Dew Point:   Wind: 9mph
Humidity: 70%   Direction: 140°SE
Pressure: 30"   Gusts: NA
Location:  38.01°N, 95.56°W
Report Text: KCNU 280852Z AUTO 14008KT 10SM CLR 05/00 A3000 RMK AO2 SLP157 T00500000 56009
Loading
Personal Weather Stations






























Interactive Weather Map New forecast layout! Learn more

10-Day Weather Forecast

Advertisements
Track Severe Weather on mobile